Terminal Aerodrome Forecast
Issued by NWS Charleston, WV

Current Version | Previous Version | Text Only | Print | Product List | Glossary Off
Versions: 1 2 3 4 5 6 7 8 9 10 11 12 13 14 15 16 17 18 19 20 21 22 23 24 25

514
FTUS41 KRLX 190001 CCA
TAFCRW
TAF COR
KCRW 190001Z 1900/1924 00000KT P6SM OVC018
     FM190200 00000KT P6SM OVC015
     FM191300 00000KT P6SM SCT020 BKN250
     FM191800 VRB03KT P6SM SCT250=

USA.gov is the U.S. government's official web portal to all federal, state and local government web resources and services.